sensor_id;sensor_type;location;lat;lon;timestamp;temperature;humidity
69206;SHT30;56319;48.920;2.332;2023-06-24T00:00:39;28.37;42.41
69206;SHT30;56319;48.920;2.332;2023-06-24T00:03:04;28.36;42.44
69206;SHT30;56319;48.920;2.332;2023-06-24T00:05:33;28.36;42.41
69206;SHT30;56319;48.920;2.332;2023-06-24T00:07:59;28.36;42.48
69206;SHT30;56319;48.920;2.332;2023-06-24T00:10:28;28.34;42.46
69206;SHT30;56319;48.920;2.332;2023-06-24T00:12:55;28.36;42.48
69206;SHT30;56319;48.920;2.332;2023-06-24T00:15:20;28.34;42.53
69206;SHT30;56319;48.920;2.332;2023-06-24T00:17:46;28.33;42.51
69206;SHT30;56319;48.920;2.332;2023-06-24T00:20:11;28.34;42.55
69206;SHT30;56319;48.920;2.332;2023-06-24T00:22:40;28.31;42.56
69206;SHT30;56319;48.920;2.332;2023-06-24T00:25:09;28.30;42.59
69206;SHT30;56319;48.920;2.332;2023-06-24T00:27:35;28.33;42.58
69206;SHT30;56319;48.920;2.332;2023-06-24T00:30:00;28.34;42.64
69206;SHT30;56319;48.920;2.332;2023-06-24T00:32:26;28.31;42.62
69206;SHT30;56319;48.920;2.332;2023-06-24T00:34:51;28.30;42.68
69206;SHT30;56319;48.920;2.332;2023-06-24T00:37:17;28.30;42.66
69206;SHT30;56319;48.920;2.332;2023-06-24T00:39:43;28.30;42.71
69206;SHT30;56319;48.920;2.332;2023-06-24T00:42:08;28.33;42.69
69206;SHT30;56319;48.920;2.332;2023-06-24T00:44:34;28.30;42.72
69206;SHT30;56319;48.920;2.332;2023-06-24T00:47:02;28.31;42.70
69206;SHT30;56319;48.920;2.332;2023-06-24T00:49:28;28.27;42.72
69206;SHT30;56319;48.920;2.332;2023-06-24T00:51:54;28.28;42.74
69206;SHT30;56319;48.920;2.332;2023-06-24T00:54:21;28.27;42.78
69206;SHT30;56319;48.920;2.332;2023-06-24T00:56:46;28.28;42.73
69206;SHT30;56319;48.920;2.332;2023-06-24T00:59:13;28.27;42.80
69206;SHT30;56319;48.920;2.332;2023-06-24T01:01:40;28.25;42.80
69206;SHT30;56319;48.920;2.332;2023-06-24T01:04:06;28.25;42.81
69206;SHT30;56319;48.920;2.332;2023-06-24T01:06:35;28.25;42.82
69206;SHT30;56319;48.920;2.332;2023-06-24T01:09:02;28.27;42.84
69206;SHT30;56319;48.920;2.332;2023-06-24T01:11:29;28.25;42.89
69206;SHT30;56319;48.920;2.332;2023-06-24T01:13:55;28.22;42.89
69206;SHT30;56319;48.920;2.332;2023-06-24T01:16:34;28.25;42.91
69206;SHT30;56319;48.920;2.332;2023-06-24T01:25:37;28.22;42.97
69206;SHT30;56319;48.920;2.332;2023-06-24T01:28:33;28.21;42.97
69206;SHT30;56319;48.920;2.332;2023-06-24T01:34:34;28.20;43.01
69206;SHT30;56319;48.920;2.332;2023-06-24T01:37:10;28.21;43.00
69206;SHT30;56319;48.920;2.332;2023-06-24T01:39:46;28.18;43.02
69206;SHT30;56319;48.920;2.332;2023-06-24T01:42:14;28.18;43.00
69206;SHT30;56319;48.920;2.332;2023-06-24T01:44:42;28.22;43.04
69206;SHT30;56319;48.920;2.332;2023-06-24T01:47:09;28.16;43.05
69206;SHT30;56319;48.920;2.332;2023-06-24T01:49:40;28.18;43.06
69206;SHT30;56319;48.920;2.332;2023-06-24T01:52:09;28.18;43.10
69206;SHT30;56319;48.920;2.332;2023-06-24T01:54:36;28.20;43.10
69206;SHT30;56319;48.920;2.332;2023-06-24T01:57:05;28.18;43.11
69206;SHT30;56319;48.920;2.332;2023-06-24T01:59:33;28.16;43.06
69206;SHT30;56319;48.920;2.332;2023-06-24T02:02:00;28.18;43.13
69206;SHT30;56319;48.920;2.332;2023-06-24T02:04:27;28.17;43.15
69206;SHT30;56319;48.920;2.332;2023-06-24T02:06:59;28.14;43.13
69206;SHT30;56319;48.920;2.332;2023-06-24T02:09:28;28.17;43.18
69206;SHT30;56319;48.920;2.332;2023-06-24T02:11:57;28.16;43.18
69206;SHT30;56319;48.920;2.332;2023-06-24T02:14:23;28.16;43.20
69206;SHT30;56319;48.920;2.332;2023-06-24T02:16:50;28.14;43.16
69206;SHT30;56319;48.920;2.332;2023-06-24T02:19:22;28.13;43.20
69206;SHT30;56319;48.920;2.332;2023-06-24T02:21:49;28.11;43.22
69206;SHT30;56319;48.920;2.332;2023-06-24T02:24:18;28.14;43.16
69206;SHT30;56319;48.920;2.332;2023-06-24T02:26:45;28.14;43.24
69206;SHT30;56319;48.920;2.332;2023-06-24T02:29:12;28.11;43.26
69206;SHT30;56319;48.920;2.332;2023-06-24T02:31:38;28.13;43.24
69206;SHT30;56319;48.920;2.332;2023-06-24T02:34:04;28.13;43.28
69206;SHT30;56319;48.920;2.332;2023-06-24T02:36:29;28.09;43.22
69206;SHT30;56319;48.920;2.332;2023-06-24T02:38:55;28.11;43.23
69206;SHT30;56319;48.920;2.332;2023-06-24T02:41:20;28.11;43.32
69206;SHT30;56319;48.920;2.332;2023-06-24T02:43:46;28.07;43.27
69206;SHT30;56319;48.920;2.332;2023-06-24T02:46:11;28.10;43.30
69206;SHT30;56319;48.920;2.332;2023-06-24T02:48:38;28.10;43.33
69206;SHT30;56319;48.920;2.332;2023-06-24T02:51:05;28.07;43.37
69206;SHT30;56319;48.920;2.332;2023-06-24T02:53:32;28.09;43.36
69206;SHT30;56319;48.920;2.332;2023-06-24T02:55:58;28.07;43.38
69206;SHT30;56319;48.920;2.332;2023-06-24T02:58:24;28.09;43.38
69206;SHT30;56319;48.920;2.332;2023-06-24T03:00:58;28.09;43.38
69206;SHT30;56319;48.920;2.332;2023-06-24T03:03:26;28.07;43.36
69206;SHT30;56319;48.920;2.332;2023-06-24T03:05:53;28.07;43.40
69206;SHT30;56319;48.920;2.332;2023-06-24T03:08:19;28.07;43.44
69206;SHT30;56319;48.920;2.332;2023-06-24T03:10:45;28.04;43.42
69206;SHT30;56319;48.920;2.332;2023-06-24T03:13:11;28.06;43.45
69206;SHT30;56319;48.920;2.332;2023-06-24T03:15:36;28.06;43.43
69206;SHT30;56319;48.920;2.332;2023-06-24T03:18:02;28.04;43.46
69206;SHT30;56319;48.920;2.332;2023-06-24T03:20:28;28.04;43.45
69206;SHT30;56319;48.920;2.332;2023-06-24T03:22:53;28.04;43.43
69206;SHT30;56319;48.920;2.332;2023-06-24T03:25:21;28.03;43.50
69206;SHT30;56319;48.920;2.332;2023-06-24T03:27:46;28.02;43.50
69206;SHT30;56319;48.920;2.332;2023-06-24T03:30:12;28.03;43.45
69206;SHT30;56319;48.920;2.332;2023-06-24T03:32:39;28.03;43.48
69206;SHT30;56319;48.920;2.332;2023-06-24T03:35:05;28.02;43.46
69206;SHT30;56319;48.920;2.332;2023-06-24T03:37:32;28.02;43.47
69206;SHT30;56319;48.920;2.332;2023-06-24T03:39:57;28.00;43.52
69206;SHT30;56319;48.920;2.332;2023-06-24T03:42:23;28.02;43.55
69206;SHT30;56319;48.920;2.332;2023-06-24T03:44:49;28.00;43.54
69206;SHT30;56319;48.920;2.332;2023-06-24T03:47:14;27.99;43.55
69206;SHT30;56319;48.920;2.332;2023-06-24T03:49:39;28.00;43.57
69206;SHT30;56319;48.920;2.332;2023-06-24T03:52:05;27.99;43.59
69206;SHT30;56319;48.920;2.332;2023-06-24T03:54:34;27.97;43.58
69206;SHT30;56319;48.920;2.332;2023-06-24T03:56:59;27.97;43.63
69206;SHT30;56319;48.920;2.332;2023-06-24T03:59:25;27.99;43.57
69206;SHT30;56319;48.920;2.332;2023-06-24T04:01:50;28.00;43.62
69206;SHT30;56319;48.920;2.332;2023-06-24T04:04:16;27.97;43.65
69206;SHT30;56319;48.920;2.332;2023-06-24T04:06:42;27.99;43.60
69206;SHT30;56319;48.920;2.332;2023-06-24T04:09:07;27.97;43.62
69206;SHT30;56319;48.920;2.332;2023-06-24T04:11:35;27.97;43.66
69206;SHT30;56319;48.920;2.332;2023-06-24T04:14:01;27.96;43.67
69206;SHT30;56319;48.920;2.332;2023-06-24T04:16:27;27.96;43.66
69206;SHT30;56319;48.920;2.332;2023-06-24T04:18:52;27.96;43.64
69206;SHT30;56319;48.920;2.332;2023-06-24T04:21:18;27.94;43.66
69206;SHT30;56319;48.920;2.332;2023-06-24T04:23:44;27.94;43.68
69206;SHT30;56319;48.920;2.332;2023-06-24T04:26:09;27.94;43.69
69206;SHT30;56319;48.920;2.332;2023-06-24T04:28:35;27.94;43.70
69206;SHT30;56319;48.920;2.332;2023-06-24T04:31:00;27.93;43.66
69206;SHT30;56319;48.920;2.332;2023-06-24T04:33:26;27.94;43.69
69206;SHT30;56319;48.920;2.332;2023-06-24T04:35:51;27.92;43.69
69206;SHT30;56319;48.920;2.332;2023-06-24T04:38:17;27.93;43.74
69206;SHT30;56319;48.920;2.332;2023-06-24T04:40:44;27.92;43.75
69206;SHT30;56319;48.920;2.332;2023-06-24T04:43:09;27.93;43.71
69206;SHT30;56319;48.920;2.332;2023-06-24T04:45:35;27.92;43.76
69206;SHT30;56319;48.920;2.332;2023-06-24T04:48:00;27.93;43.76
69206;SHT30;56319;48.920;2.332;2023-06-24T04:50:26;27.90;43.76
69206;SHT30;56319;48.920;2.332;2023-06-24T04:52:52;27.92;43.77
69206;SHT30;56319;48.920;2.332;2023-06-24T04:55:21;27.90;43.81
69206;SHT30;56319;48.920;2.332;2023-06-24T04:57:47;27.90;43.79
69206;SHT30;56319;48.920;2.332;2023-06-24T05:00:13;27.89;43.79
69206;SHT30;56319;48.920;2.332;2023-06-24T05:02:39;27.89;43.77
69206;SHT30;56319;48.920;2.332;2023-06-24T05:05:05;27.88;43.79
69206;SHT30;56319;48.920;2.332;2023-06-24T05:07:30;27.88;43.86
69206;SHT30;56319;48.920;2.332;2023-06-24T05:09:56;27.89;43.83
69206;SHT30;56319;48.920;2.332;2023-06-24T05:12:21;27.90;43.85
69206;SHT30;56319;48.920;2.332;2023-06-24T05:14:50;27.89;43.87
69206;SHT30;56319;48.920;2.332;2023-06-24T05:17:17;27.88;43.86
69206;SHT30;56319;48.920;2.332;2023-06-24T05:19:42;27.89;43.85
69206;SHT30;56319;48.920;2.332;2023-06-24T05:22:09;27.88;43.88
69206;SHT30;56319;48.920;2.332;2023-06-24T05:24:34;27.85;43.86
69206;SHT30;56319;48.920;2.332;2023-06-24T05:27:04;27.86;43.87
69206;SHT30;56319;48.920;2.332;2023-06-24T05:29:31;27.86;43.91
69206;SHT30;56319;48.920;2.332;2023-06-24T05:31:57;27.86;43.91
69206;SHT30;56319;48.920;2.332;2023-06-24T05:34:23;27.83;43.91
69206;SHT30;56319;48.920;2.332;2023-06-24T05:36:49;27.86;43.89
69206;SHT30;56319;48.920;2.332;2023-06-24T05:39:14;27.83;43.88
69206;SHT30;56319;48.920;2.332;2023-06-24T05:41:40;27.85;43.97
69206;SHT30;56319;48.920;2.332;2023-06-24T05:44:07;27.85;43.97
69206;SHT30;56319;48.920;2.332;2023-06-24T05:46:35;27.82;43.98
69206;SHT30;56319;48.920;2.332;2023-06-24T05:49:01;27.82;43.96
69206;SHT30;56319;48.920;2.332;2023-06-24T05:51:26;27.83;43.95
69206;SHT30;56319;48.920;2.332;2023-06-24T05:53:52;27.85;43.93
69206;SHT30;56319;48.920;2.332;2023-06-24T05:56:17;27.83;43.98
69206;SHT30;56319;48.920;2.332;2023-06-24T05:58:43;27.83;43.98
69206;SHT30;56319;48.920;2.332;2023-06-24T06:01:10;27.82;44.01
69206;SHT30;56319;48.920;2.332;2023-06-24T06:03:35;27.82;44.02
69206;SHT30;56319;48.920;2.332;2023-06-24T06:06:01;27.81;43.98
69206;SHT30;56319;48.920;2.332;2023-06-24T06:08:27;27.81;44.02
69206;SHT30;56319;48.920;2.332;2023-06-24T06:10:52;27.81;44.02
69206;SHT30;56319;48.920;2.332;2023-06-24T06:13:18;27.83;44.06
69206;SHT30;56319;48.920;2.332;2023-06-24T06:15:43;27.81;44.00
69206;SHT30;56319;48.920;2.332;2023-06-24T06:18:09;27.82;44.04
69206;SHT30;56319;48.920;2.332;2023-06-24T06:20:34;27.81;44.00
69206;SHT30;56319;48.920;2.332;2023-06-24T06:23:00;27.79;44.05
69206;SHT30;56319;48.920;2.332;2023-06-24T06:25:25;27.82;44.04
69206;SHT30;56319;48.920;2.332;2023-06-24T06:27:51;27.82;44.07
69206;SHT30;56319;48.920;2.332;2023-06-24T06:30:16;27.81;44.08
69206;SHT30;56319;48.920;2.332;2023-06-24T06:32:43;27.79;44.07
69206;SHT30;56319;48.920;2.332;2023-06-24T06:35:08;27.79;44.08
69206;SHT30;56319;48.920;2.332;2023-06-24T06:37:34;27.81;44.08
69206;SHT30;56319;48.920;2.332;2023-06-24T06:39:59;27.81;44.05
69206;SHT30;56319;48.920;2.332;2023-06-24T06:42:25;27.81;44.09
69206;SHT30;56319;48.920;2.332;2023-06-24T06:44:50;27.79;44.10
69206;SHT30;56319;48.920;2.332;2023-06-24T06:47:16;27.81;44.10
69206;SHT30;56319;48.920;2.332;2023-06-24T06:49:41;27.79;44.10
69206;SHT30;56319;48.920;2.332;2023-06-24T06:52:07;27.79;44.05
69206;SHT30;56319;48.920;2.332;2023-06-24T06:54:32;27.78;44.08
69206;SHT30;56319;48.920;2.332;2023-06-24T06:57:01;27.79;44.10
69206;SHT30;56319;48.920;2.332;2023-06-24T06:59:27;27.78;44.10
69206;SHT30;56319;48.920;2.332;2023-06-24T07:01:52;27.79;44.07
69206;SHT30;56319;48.920;2.332;2023-06-24T07:04:18;27.79;44.09
69206;SHT30;56319;48.920;2.332;2023-06-24T07:06:44;27.79;44.08
69206;SHT30;56319;48.920;2.332;2023-06-24T07:09:10;27.81;44.10
69206;SHT30;56319;48.920;2.332;2023-06-24T07:11:35;27.79;44.04
69206;SHT30;56319;48.920;2.332;2023-06-24T07:14:01;27.79;44.10
69206;SHT30;56319;48.920;2.332;2023-06-24T07:16:26;27.76;44.05
69206;SHT30;56319;48.920;2.332;2023-06-24T07:18:52;27.79;44.07
69206;SHT30;56319;48.920;2.332;2023-06-24T07:21:17;27.79;44.04
69206;SHT30;56319;48.920;2.332;2023-06-24T07:23:43;27.82;44.10
69206;SHT30;56319;48.920;2.332;2023-06-24T07:26:08;27.78;44.06
69206;SHT30;56319;48.920;2.332;2023-06-24T07:28:34;27.76;44.01
69206;SHT30;56319;48.920;2.332;2023-06-24T07:31:00;27.79;44.04
69206;SHT30;56319;48.920;2.332;2023-06-24T07:33:25;27.79;44.08
69206;SHT30;56319;48.920;2.332;2023-06-24T07:35:51;27.82;44.07
69206;SHT30;56319;48.920;2.332;2023-06-24T07:38:17;27.81;44.07
69206;SHT30;56319;48.920;2.332;2023-06-24T07:40:42;27.79;44.05
69206;SHT30;56319;48.920;2.332;2023-06-24T07:43:08;27.79;44.04
69206;SHT30;56319;48.920;2.332;2023-06-24T07:45:33;27.81;44.05
69206;SHT30;56319;48.920;2.332;2023-06-24T07:47:59;27.81;44.04
69206;SHT30;56319;48.920;2.332;2023-06-24T07:50:24;27.82;44.00
69206;SHT30;56319;48.920;2.332;2023-06-24T07:52:50;27.82;43.98
69206;SHT30;56319;48.920;2.332;2023-06-24T07:55:16;27.82;43.98
69206;SHT30;56319;48.920;2.332;2023-06-24T07:57:45;27.82;44.00
69206;SHT30;56319;48.920;2.332;2023-06-24T08:00:11;27.82;43.97
69206;SHT30;56319;48.920;2.332;2023-06-24T08:02:37;27.82;43.98
69206;SHT30;56319;48.920;2.332;2023-06-24T08:05:03;27.83;43.99
69206;SHT30;56319;48.920;2.332;2023-06-24T08:07:28;27.85;43.98
69206;SHT30;56319;48.920;2.332;2023-06-24T08:09:54;27.83;43.96
69206;SHT30;56319;48.920;2.332;2023-06-24T08:12:19;27.83;43.97
69206;SHT30;56319;48.920;2.332;2023-06-24T08:14:45;27.85;43.96
69206;SHT30;56319;48.920;2.332;2023-06-24T08:17:10;27.86;43.96
69206;SHT30;56319;48.920;2.332;2023-06-24T08:19:35;27.85;43.91
69206;SHT30;56319;48.920;2.332;2023-06-24T08:22:01;27.86;43.93
69206;SHT30;56319;48.920;2.332;2023-06-24T08:24:27;27.85;43.95
69206;SHT30;56319;48.920;2.332;2023-06-24T08:26:53;27.85;43.96
69206;SHT30;56319;48.920;2.332;2023-06-24T08:29:19;27.86;43.93
69206;SHT30;56319;48.920;2.332;2023-06-24T08:31:44;27.88;43.95
69206;SHT30;56319;48.920;2.332;2023-06-24T08:34:09;27.88;43.91
69206;SHT30;56319;48.920;2.332;2023-06-24T08:36:35;27.86;43.89
69206;SHT30;56319;48.920;2.332;2023-06-24T08:39:02;27.86;43.91
69206;SHT30;56319;48.920;2.332;2023-06-24T08:41:28;27.86;43.88
69206;SHT30;56319;48.920;2.332;2023-06-24T08:43:54;27.88;43.88
69206;SHT30;56319;48.920;2.332;2023-06-24T08:46:20;27.88;43.86
69206;SHT30;56319;48.920;2.332;2023-06-24T08:48:48;27.88;43.85
69206;SHT30;56319;48.920;2.332;2023-06-24T08:51:18;27.86;43.84
69206;SHT30;56319;48.920;2.332;2023-06-24T08:53:47;27.89;43.81
69206;SHT30;56319;48.920;2.332;2023-06-24T08:56:13;27.93;43.82
69206;SHT30;56319;48.920;2.332;2023-06-24T08:58:40;27.90;43.84
69206;SHT30;56319;48.920;2.332;2023-06-24T09:01:06;27.90;43.82
69206;SHT30;56319;48.920;2.332;2023-06-24T09:03:32;27.92;43.80
69206;SHT30;56319;48.920;2.332;2023-06-24T09:05:57;27.93;43.79
69206;SHT30;56319;48.920;2.332;2023-06-24T09:08:23;27.93;43.81
69206;SHT30;56319;48.920;2.332;2023-06-24T09:10:53;27.94;43.76
69206;SHT30;56319;48.920;2.332;2023-06-24T09:13:21;27.92;43.74
69206;SHT30;56319;48.920;2.332;2023-06-24T09:15:52;27.94;43.74
69206;SHT30;56319;48.920;2.332;2023-06-24T09:18:18;27.93;43.74
69206;SHT30;56319;48.920;2.332;2023-06-24T09:20:44;27.93;43.74
69206;SHT30;56319;48.920;2.332;2023-06-24T09:23:11;27.94;43.74
69206;SHT30;56319;48.920;2.332;2023-06-24T09:25:36;27.96;43.71
69206;SHT30;56319;48.920;2.332;2023-06-24T09:28:02;27.94;43.68
69206;SHT30;56319;48.920;2.332;2023-06-24T09:30:28;27.96;43.69
69206;SHT30;56319;48.920;2.332;2023-06-24T09:32:55;27.96;43.66
69206;SHT30;56319;48.920;2.332;2023-06-24T09:35:23;27.97;43.68
69206;SHT30;56319;48.920;2.332;2023-06-24T09:37:52;27.99;43.64
69206;SHT30;56319;48.920;2.332;2023-06-24T09:40:21;27.97;43.67
69206;SHT30;56319;48.920;2.332;2023-06-24T09:42:50;27.99;43.63
69206;SHT30;56319;48.920;2.332;2023-06-24T09:45:22;27.99;43.64
69206;SHT30;56319;48.920;2.332;2023-06-24T09:47:47;27.99;43.62
69206;SHT30;56319;48.920;2.332;2023-06-24T09:50:13;28.00;43.58
69206;SHT30;56319;48.920;2.332;2023-06-24T09:52:39;28.02;43.61
69206;SHT30;56319;48.920;2.332;2023-06-24T09:55:05;28.02;43.57
69206;SHT30;56319;48.920;2.332;2023-06-24T09:57:32;28.03;43.53
69206;SHT30;56319;48.920;2.332;2023-06-24T10:00:00;28.02;43.58
69206;SHT30;56319;48.920;2.332;2023-06-24T10:02:28;28.02;43.54
69206;SHT30;56319;48.920;2.332;2023-06-24T10:04:55;28.04;43.55
69206;SHT30;56319;48.920;2.332;2023-06-24T10:07:20;28.03;43.52
69206;SHT30;56319;48.920;2.332;2023-06-24T10:09:47;28.04;43.50
69206;SHT30;56319;48.920;2.332;2023-06-24T10:12:14;28.06;43.52
69206;SHT30;56319;48.920;2.332;2023-06-24T10:14:39;28.06;43.50
69206;SHT30;56319;48.920;2.332;2023-06-24T10:17:05;28.06;43.53
69206;SHT30;56319;48.920;2.332;2023-06-24T10:19:38;28.07;43.47
69206;SHT30;56319;48.920;2.332;2023-06-24T10:22:07;28.06;43.48
69206;SHT30;56319;48.920;2.332;2023-06-24T10:24:37;28.09;43.45
69206;SHT30;56319;48.920;2.332;2023-06-24T10:27:07;28.09;43.48
69206;SHT30;56319;48.920;2.332;2023-06-24T10:29:37;28.07;43.51
69206;SHT30;56319;48.920;2.332;2023-06-24T10:32:05;28.09;43.52
69206;SHT30;56319;48.920;2.332;2023-06-24T10:34:32;28.11;43.48
69206;SHT30;56319;48.920;2.332;2023-06-24T10:37:11;28.10;43.44
69206;SHT30;56319;48.920;2.332;2023-06-24T10:39:38;28.11;43.48
69206;SHT30;56319;48.920;2.332;2023-06-24T10:42:25;28.11;43.44
69206;SHT30;56319;48.920;2.332;2023-06-24T10:44:51;28.10;43.41
69206;SHT30;56319;48.920;2.332;2023-06-24T10:47:18;28.11;43.43
69206;SHT30;56319;48.920;2.332;2023-06-24T10:49:44;28.11;43.43
69206;SHT30;56319;48.920;2.332;2023-06-24T10:52:10;28.11;43.39
69206;SHT30;56319;48.920;2.332;2023-06-24T10:54:38;28.14;43.44
69206;SHT30;56319;48.920;2.332;2023-06-24T10:57:04;28.14;43.43
69206;SHT30;56319;48.920;2.332;2023-06-24T10:59:50;28.14;43.43
69206;SHT30;56319;48.920;2.332;2023-06-24T11:02:18;28.14;43.40
69206;SHT30;56319;48.920;2.332;2023-06-24T11:04:46;28.16;43.39
69206;SHT30;56319;48.920;2.332;2023-06-24T11:07:12;28.14;43.44
69206;SHT30;56319;48.920;2.332;2023-06-24T11:09:40;28.14;43.42
69206;SHT30;56319;48.920;2.332;2023-06-24T11:12:08;28.17;43.42
69206;SHT30;56319;48.920;2.332;2023-06-24T11:14:36;28.14;43.42
69206;SHT30;56319;48.920;2.332;2023-06-24T11:17:02;28.16;43.35
69206;SHT30;56319;48.920;2.332;2023-06-24T11:19:30;28.16;43.38
69206;SHT30;56319;48.920;2.332;2023-06-24T11:22:00;28.18;43.37
69206;SHT30;56319;48.920;2.332;2023-06-24T11:24:27;28.17;43.35
69206;SHT30;56319;48.920;2.332;2023-06-24T11:26:52;28.21;43.37
69206;SHT30;56319;48.920;2.332;2023-06-24T11:29:18;28.22;43.30
69206;SHT30;56319;48.920;2.332;2023-06-24T11:31:45;28.24;43.33
69206;SHT30;56319;48.920;2.332;2023-06-24T11:34:10;28.27;43.32
69206;SHT30;56319;48.920;2.332;2023-06-24T11:36:36;28.28;43.28
69206;SHT30;56319;48.920;2.332;2023-06-24T11:39:02;28.30;43.21
69206;SHT30;56319;48.920;2.332;2023-06-24T11:41:28;28.31;43.25
69206;SHT30;56319;48.920;2.332;2023-06-24T11:43:54;28.34;43.21
69206;SHT30;56319;48.920;2.332;2023-06-24T11:46:42;28.38;43.12
69206;SHT30;56319;48.920;2.332;2023-06-24T11:49:08;28.38;43.08
69206;SHT30;56319;48.920;2.332;2023-06-24T11:51:35;28.43;43.08
69206;SHT30;56319;48.920;2.332;2023-06-24T11:54:03;28.47;43.04
69206;SHT30;56319;48.920;2.332;2023-06-24T11:56:49;28.51;43.02
69206;SHT30;56319;48.920;2.332;2023-06-24T11:59:19;28.52;42.99
69206;SHT30;56319;48.920;2.332;2023-06-24T12:04:32;28.59;42.92
69206;SHT30;56319;48.920;2.332;2023-06-24T12:06:59;28.65;42.83
69206;SHT30;56319;48.920;2.332;2023-06-24T12:09:25;28.65;42.84
69206;SHT30;56319;48.920;2.332;2023-06-24T12:11:52;28.68;42.72
69206;SHT30;56319;48.920;2.332;2023-06-24T12:14:18;28.73;42.74
69206;SHT30;56319;48.920;2.332;2023-06-24T12:16:44;28.76;42.66
69206;SHT30;56319;48.920;2.332;2023-06-24T12:19:09;28.80;42.68
69206;SHT30;56319;48.920;2.332;2023-06-24T12:21:35;28.82;42.56
69206;SHT30;56319;48.920;2.332;2023-06-24T12:24:01;28.84;42.55
69206;SHT30;56319;48.920;2.332;2023-06-24T12:26:27;28.89;42.48
69206;SHT30;56319;48.920;2.332;2023-06-24T12:28:54;28.93;42.49
69206;SHT30;56319;48.920;2.332;2023-06-24T12:31:21;28.98;42.38
69206;SHT30;56319;48.920;2.332;2023-06-24T12:33:47;29.02;42.37
69206;SHT30;56319;48.920;2.332;2023-06-24T12:36:12;29.02;42.28
69206;SHT30;56319;48.920;2.332;2023-06-24T12:38:38;29.09;42.28
69206;SHT30;56319;48.920;2.332;2023-06-24T12:41:04;29.14;42.23
69206;SHT30;56319;48.920;2.332;2023-06-24T12:43:29;29.13;42.14
69206;SHT30;56319;48.920;2.332;2023-06-24T12:45:55;29.18;42.06
69206;SHT30;56319;48.920;2.332;2023-06-24T12:48:21;29.21;42.11
69206;SHT30;56319;48.920;2.332;2023-06-24T12:50:46;29.26;42.00
69206;SHT30;56319;48.920;2.332;2023-06-24T12:53:13;29.33;41.97
69206;SHT30;56319;48.920;2.332;2023-06-24T12:55:41;29.34;41.91
69206;SHT30;56319;48.920;2.332;2023-06-24T12:58:07;29.38;41.87
69206;SHT30;56319;48.920;2.332;2023-06-24T13:00:32;29.43;41.85
69206;SHT30;56319;48.920;2.332;2023-06-24T13:02:58;29.44;41.77
69206;SHT30;56319;48.920;2.332;2023-06-24T13:05:23;29.50;41.69
69206;SHT30;56319;48.920;2.332;2023-06-24T13:07:50;29.51;41.70
69206;SHT30;56319;48.920;2.332;2023-06-24T13:10:15;29.57;41.64
69206;SHT30;56319;48.920;2.332;2023-06-24T13:12:41;29.58;41.58
69206;SHT30;56319;48.920;2.332;2023-06-24T13:15:07;29.62;41.51
69206;SHT30;56319;48.920;2.332;2023-06-24T13:17:35;29.66;41.45
69206;SHT30;56319;48.920;2.332;2023-06-24T13:20:00;29.72;41.44
69206;SHT30;56319;48.920;2.332;2023-06-24T13:22:29;29.75;41.39
69206;SHT30;56319;48.920;2.332;2023-06-24T13:24:56;29.78;41.32
69206;SHT30;56319;48.920;2.332;2023-06-24T13:27:21;29.83;41.30
69206;SHT30;56319;48.920;2.332;2023-06-24T13:29:47;29.85;41.24
69206;SHT30;56319;48.920;2.332;2023-06-24T13:32:12;29.92;41.17
69206;SHT30;56319;48.920;2.332;2023-06-24T13:34:38;29.93;41.16
69206;SHT30;56319;48.920;2.332;2023-06-24T13:37:04;29.97;41.07
69206;SHT30;56319;48.920;2.332;2023-06-24T13:39:30;30.02;41.05
69206;SHT30;56319;48.920;2.332;2023-06-24T13:41:56;30.07;40.99
69206;SHT30;56319;48.920;2.332;2023-06-24T13:44:22;30.09;40.88
69206;SHT30;56319;48.920;2.332;2023-06-24T13:46:48;30.13;40.92
69206;SHT30;56319;48.920;2.332;2023-06-24T13:49:16;30.17;40.86
69206;SHT30;56319;48.920;2.332;2023-06-24T13:51:42;30.21;40.78
69206;SHT30;56319;48.920;2.332;2023-06-24T13:54:07;30.24;40.71
69206;SHT30;56319;48.920;2.332;2023-06-24T13:56:33;30.27;40.63
69206;SHT30;56319;48.920;2.332;2023-06-24T13:58:59;30.33;40.62
69206;SHT30;56319;48.920;2.332;2023-06-24T14:01:25;30.33;40.58
69206;SHT30;56319;48.920;2.332;2023-06-24T14:03:51;30.41;40.53
69206;SHT30;56319;48.920;2.332;2023-06-24T14:06:19;30.41;40.49
69206;SHT30;56319;48.920;2.332;2023-06-24T14:08:45;30.44;40.43
69206;SHT30;56319;48.920;2.332;2023-06-24T14:11:11;30.51;40.39
69206;SHT30;56319;48.920;2.332;2023-06-24T14:13:37;30.52;40.34
69206;SHT30;56319;48.920;2.332;2023-06-24T14:16:03;30.55;40.32
69206;SHT30;56319;48.920;2.332;2023-06-24T14:18:29;30.61;40.29
69206;SHT30;56319;48.920;2.332;2023-06-24T14:20:59;30.62;40.22
69206;SHT30;56319;48.920;2.332;2023-06-24T14:23:24;30.67;40.13
69206;SHT30;56319;48.920;2.332;2023-06-24T14:25:52;30.71;40.12
69206;SHT30;56319;48.920;2.332;2023-06-24T14:28:17;30.72;40.05
69206;SHT30;56319;48.920;2.332;2023-06-24T14:30:43;30.76;40.02
69206;SHT30;56319;48.920;2.332;2023-06-24T14:33:09;30.82;39.95
69206;SHT30;56319;48.920;2.332;2023-06-24T14:35:35;30.82;39.92
69206;SHT30;56319;48.920;2.332;2023-06-24T14:38:00;30.86;39.89
69206;SHT30;56319;48.920;2.332;2023-06-24T14:40:26;30.87;39.81
69206;SHT30;56319;48.920;2.332;2023-06-24T14:42:51;30.92;39.84
69206;SHT30;56319;48.920;2.332;2023-06-24T14:45:17;30.93;39.77
69206;SHT30;56319;48.920;2.332;2023-06-24T14:47:42;30.95;39.75
69206;SHT30;56319;48.920;2.332;2023-06-24T14:50:08;30.97;39.69
69206;SHT30;56319;48.920;2.332;2023-06-24T14:52:34;31.00;39.70
69206;SHT30;56319;48.920;2.332;2023-06-24T14:54:59;31.03;39.65
69206;SHT30;56319;48.920;2.332;2023-06-24T14:57:25;31.06;39.59
69206;SHT30;56319;48.920;2.332;2023-06-24T14:59:51;31.07;39.60
69206;SHT30;56319;48.920;2.332;2023-06-24T15:02:17;31.09;39.58
69206;SHT30;56319;48.920;2.332;2023-06-24T15:04:43;31.10;39.55
69206;SHT30;56319;48.920;2.332;2023-06-24T15:07:08;31.14;39.55
69206;SHT30;56319;48.920;2.332;2023-06-24T15:09:34;31.14;39.51
69206;SHT30;56319;48.920;2.332;2023-06-24T15:12:00;31.17;39.43
69206;SHT30;56319;48.920;2.332;2023-06-24T15:14:26;31.20;39.48
69206;SHT30;56319;48.920;2.332;2023-06-24T15:16:51;31.19;39.42
69206;SHT30;56319;48.920;2.332;2023-06-24T15:19:19;31.19;39.41
69206;SHT30;56319;48.920;2.332;2023-06-24T15:21:45;31.21;39.38
69206;SHT30;56319;48.920;2.332;2023-06-24T15:24:10;31.24;39.33
69206;SHT30;56319;48.920;2.332;2023-06-24T15:26:36;31.26;39.38
69206;SHT30;56319;48.920;2.332;2023-06-24T15:29:02;31.27;39.33
69206;SHT30;56319;48.920;2.332;2023-06-24T15:31:27;31.27;39.30
69206;SHT30;56319;48.920;2.332;2023-06-24T15:33:53;31.29;39.30
69206;SHT30;56319;48.920;2.332;2023-06-24T15:36:18;31.31;39.24
69206;SHT30;56319;48.920;2.332;2023-06-24T15:38:46;31.33;39.28